Tuesday, October 23, 2018, 8:41 PM EDT
Back to Local

KBOS, Boston Logan International

Location: Boston, MA, United States Lat: 42.367
Local Time: 8:41 PM EDT ( 0:41 GMT) Lon: -71.017
Time Zone: US/Eastern Elev: 19 ft

Show me the last for .
Show Decoded

2018-10-23 19:47 METAR KBOS 232347Z 03007KT 10SM FEW015 SCT043 BKN060 BKN130 09/07 A2990 RMK AO2
                 LTG DSNT N-E RAE37 TSE32B33E41 P0021 T00940072 =
2018-10-23 19:11 METAR KBOS 232311Z COR 04004KT 4SM -TSRA FEW015 BKN032CB OVC050 11/08 A2992 RMK
                 AO2 OCNL LTGICCCCG N TS N MOV NE P0016 T01060078 =
2018-10-23 19:00 METAR KBOS 232300Z VRB04KT 2SM +TSRA FEW015 BKN029CB OVC050 11/08 A2991 RMK AO2
                 OCNL LTGICCCCG NW-N TS NW-N MOV NE P0010 T01060078 =
2018-10-23 18:53 METAR KBOS 232253Z 29022G31KT 5SM +TSRA FEW013 BKN030CB OVC041 12/08 A2992 RMK
                 AO2 RAB52 TSB52 SLP131 OCNL LTGICCC W-N TS W-NW MOV NE P0000 T01170083 =
2018-10-23 18:52 METAR KBOS 232252Z 29022G31KT 6SM +TSRA FEW013 BKN030CB OVC036 12/09 A2992 RMK
                 AO2 RAB52 TSB52 OCNL LTGICCC W-N TS W-NW MOV NE P0000 =
2018-10-23 17:54 METAR KBOS 232154Z 09008KT 10SM FEW011 SCT038 BKN060 BKN150 11/09 A2989 RMK AO2
                 LTG DSNT W AND NW RAE19 TSE05 SLP121 P0005 T01110089 =
2018-10-23 17:05 METAR KBOS 232105Z 06005KT 4SM R04R/5500VP6000FT -RA BR FEW011 SCT035 BKN050
                 BKN150 11/09 A2990 RMK AO2 LTG DSNT NE TSE05 PRESFR VIS NE-S 1 1/2 P0004
                 T01110094 =
2018-10-23 16:54 METAR KBOS 232054Z COR 12006KT 4SM TSRA BR FEW011 BKN037CB BKN060 BKN150 12/09
                 A2992 RMK AO2 TSB28E31B32 PRESFR SLP130 OCNL LTGICCC SW TS SW MOV NE VIS NE-S 1
                 1/2 P0011 60015 T01170089 56035 =
2018-10-23 16:29 METAR KBOS 232029Z 14011KT 4SM TSRA BR FEW011 SCT041CB OVC060 12/10 A2994 RMK
                 AO2 TSB28 OCNL LTGICCC SE-SW TS SE-SW MOV NE P0003 T01170100 =
2018-10-23 15:54 METAR KBOS 231954Z 13012KT 5SM -RA FEW011 SCT043 BKN060 13/10 A2995 RMK AO2 LTG
                 DSNT SE AND SW RAB00 SLP141 P0001 T01280100 =
2018-10-23 14:54 METAR KBOS 231854Z 11010KT 10SM FEW015 SCT027 BKN047 OVC150 12/09 A2998 RMK AO2
                 RAB1757E50 SLP151 P0003 T01220094 =
2018-10-23 14:16 METAR KBOS 231816Z 10013KT 4SM RA FEW019 SCT029 OVC055 12/09 A3000 RMK AO2
                 RAB1757 P0001 T01220094 =
2018-10-23 14:01 METAR KBOS 231801Z 10008KT 9SM -RA BKN029 OVC060 13/08 A3002 RMK AO2 RAB1757
                 P0000 T01280078 =
2018-10-23 13:54 METAR KBOS 231754Z 11009KT 10SM SCT028 SCT044 OVC090 13/08 A3002 RMK AO2 SLP165
                 T01280078 10133 20089 58031 =
2018-10-23 12:54 METAR KBOS 231654Z 14008KT 10SM FEW038 BKN080 OVC110 13/07 A3006 RMK AO2 SLP178
                 T01280067 =
2018-10-23 11:54 METAR KBOS 231554Z 15009KT 10SM FEW040 OVC100 13/07 A3009 RMK AO2 SLP189
                 T01280067 =
2018-10-23 10:54 METAR KBOS 231454Z 15009KT 10SM FEW050 FEW075 OVC110 12/07 A3011 RMK AO2 SLP196
                 BINOVC T01220067 58009 =
2018-10-23 09:54 METAR KBOS 231354Z 15010KT 10SM FEW050 BKN110 12/06 A3012 RMK AO2 SLP199
                 T01170056 =
2018-10-23 08:54 METAR KBOS 231254Z 16013KT 10SM FEW065 BKN100 11/05 A3014 RMK AO2 SLP205
                 T01060050 =
2018-10-23 07:54 METAR KBOS 231154Z 17007KT 10SM OVC100 09/04 A3014 RMK AO2 SLP205 T00890044
                 10089 20050 56005 =
2018-10-23 06:54 METAR KBOS 231054Z 18007KT 10SM OVC100 08/03 A3014 RMK AO2 SLP206 T00780028 =
2018-10-23 05:54 METAR KBOS 230954Z 18003KT 10SM OVC095 07/03 A3015 RMK AO2 SLP209 T00720028 =
2018-10-23 04:54 METAR KBOS 230854Z 00000KT 10SM OVC090 07/02 A3015 RMK AO2 SLP210 T00720022
                 58009 =
2018-10-23 03:54 METAR KBOS 230754Z 17003KT 10SM FEW050 OVC090 07/02 A3017 RMK AO2 SLP214
                 T00670017 =
2018-10-23 02:54 METAR KBOS 230654Z 00000KT 10SM BKN090 06/01 A3017 RMK AO2 SLP216 T00610011 =
2018-10-23 01:54 METAR KBOS 230554Z 20004KT 10SM CLR 06/00 A3018 RMK AO2 SLP220 T00560000 10089
                 20050 58006 =
2018-10-23 00:54 METAR KBOS 230454Z 21005KT 10SM CLR 06/00 A3019 RMK AO2 SLP223 T00610000
                 401220011 =
2018-10-22 23:54 METAR KBOS 230354Z 18005KT 10SM SCT075 OVC095 07/01 A3020 RMK AO2 SLP225
                 T00670011 =
2018-10-22 22:54 METAR KBOS 230254Z 21003KT 10SM OVC070 07/00 A3020 RMK AO2 SLP226 T00720000
                 51006 =
2018-10-22 21:54 METAR KBOS 230154Z 22009KT 10SM SCT060 BKN120 08/M01 A3020 RMK AO2 SLP225
                 T00781006 =
2018-10-22 20:54 METAR KBOS 230054Z 23007KT 10SM BKN060 BKN120 08/M01 A3019 RMK AO2 SLP223
                 T00831006 =

Support USWX by starting your Amazon purchase here.